createdAt,value
2022-08-28T00:01:26.462Z,6.88
2022-08-28T00:06:20.222Z,7.57
2022-08-28T00:11:14.990Z,6.82
2022-08-28T00:16:09.113Z,6.65
2022-08-28T00:21:02.992Z,6.85
2022-08-28T00:25:56.440Z,6.07
2022-08-28T00:30:54.769Z,7.25
2022-08-28T00:35:49.590Z,7.45
2022-08-28T00:40:44.906Z,6.93
2022-08-28T00:45:40.093Z,6.78
2022-08-28T00:50:52.325Z,6.47
2022-08-28T00:55:46.147Z,6.50
2022-08-28T01:00:41.265Z,7.00
2022-08-28T01:05:41.810Z,5.75
2022-08-28T01:10:39.059Z,8.32
2022-08-28T01:15:39.093Z,7.43
2022-08-28T01:20:36.097Z,6.05
2022-08-28T01:25:35.161Z,6.45
2022-08-28T01:30:29.300Z,7.50
2022-08-28T01:35:25.847Z,6.93
2022-08-28T01:40:27.974Z,6.72
2022-08-28T01:45:24.928Z,6.75
2022-08-28T01:50:21.841Z,6.68
2022-08-28T01:55:15.514Z,7.10
2022-08-28T02:00:15.641Z,6.13
2022-08-28T02:05:13.064Z,7.22
2022-08-28T02:10:07.660Z,7.07
2022-08-28T02:15:01.351Z,7.15
2022-08-28T02:19:54.861Z,6.35
2022-08-28T02:24:49.865Z,6.65
2022-08-28T02:29:44.269Z,7.75
2022-08-28T02:34:37.936Z,7.35
2022-08-28T02:39:31.663Z,6.05
2022-08-28T02:44:26.426Z,6.93
2022-08-28T02:49:20.308Z,6.55
2022-08-28T02:54:13.908Z,6.97
2022-08-28T02:59:11.762Z,6.18
2022-08-28T03:04:06.775Z,7.15
2022-08-28T03:09:00.226Z,7.07
2022-08-28T03:13:53.721Z,6.53
2022-08-28T03:18:47.646Z,7.13
2022-08-28T03:23:43.559Z,6.60
2022-08-28T03:28:40.384Z,6.20
2022-08-28T03:33:34.722Z,6.25
2022-08-28T03:38:29.107Z,7.55
2022-08-28T03:43:26.321Z,7.22
2022-08-28T03:48:20.323Z,7.38
2022-08-28T03:53:13.909Z,7.25
2022-08-28T03:58:07.921Z,6.88
2022-08-28T04:03:04.731Z,7.15
2022-08-28T04:07:58.381Z,7.35
2022-08-28T04:12:54.205Z,7.95
2022-08-28T04:17:52.333Z,7.05
2022-08-28T04:22:50.027Z,7.03
2022-08-28T04:27:51.811Z,8.15
2022-08-28T04:32:50.167Z,7.15
2022-08-28T04:37:44.015Z,7.05
2022-08-28T04:42:40.125Z,7.28
2022-08-28T04:47:38.623Z,7.85
2022-08-28T04:52:34.651Z,7.43
2022-08-28T04:57:27.882Z,7.63
2022-08-28T05:02:25.245Z,8.00
2022-08-28T05:07:18.500Z,8.73
2022-08-28T05:12:17.379Z,8.38
2022-08-28T05:17:10.697Z,7.07
2022-08-28T05:22:05.414Z,7.78
2022-08-28T05:26:58.664Z,7.65
2022-08-28T05:31:54.860Z,6.93
2022-08-28T05:36:50.087Z,7.97
2022-08-28T05:41:46.560Z,8.85
2022-08-28T05:46:46.758Z,7.47
2022-08-28T05:51:42.018Z,8.00
2022-08-28T05:56:38.681Z,8.18
2022-08-28T06:01:41.590Z,9.40
2022-08-28T06:06:39.865Z,6.93
2022-08-28T06:11:38.985Z,7.35
2022-08-28T06:16:42.180Z,6.80
2022-08-28T06:21:37.146Z,6.35
2022-08-28T06:26:33.378Z,6.75
2022-08-28T06:31:29.732Z,6.90
2022-08-28T06:36:30.631Z,7.38
2022-08-28T06:41:25.135Z,6.90
2022-08-28T06:46:21.884Z,6.68
2022-08-28T06:51:15.766Z,6.60
2022-08-28T06:56:25.774Z,6.15
2022-08-28T07:01:27.156Z,6.40
2022-08-28T07:06:21.967Z,7.18
2022-08-28T07:11:26.091Z,6.65
2022-08-28T07:16:21.527Z,6.15
2022-08-28T07:21:17.790Z,6.43
2022-08-28T07:26:15.132Z,6.68
2022-08-28T07:31:16.151Z,6.38
2022-08-28T07:36:29.565Z,6.38
2022-08-28T07:41:26.056Z,7.25
2022-08-28T07:46:21.772Z,6.55
2022-08-28T07:51:17.359Z,6.90
2022-08-28T07:56:11.923Z,6.38
2022-08-28T08:01:05.440Z,6.45
2022-08-28T08:06:05.973Z,7.32
2022-08-28T08:11:01.456Z,7.88
2022-08-28T08:15:54.968Z,6.75
2022-08-28T08:20:48.521Z,5.30
2022-08-28T08:25:55.257Z,6.35
2022-08-28T08:30:52.297Z,6.28
2022-08-28T08:35:48.365Z,5.40
2022-08-28T08:40:45.888Z,6.20
2022-08-28T08:45:43.301Z,6.00
2022-08-28T08:50:39.804Z,6.93
2022-08-28T09:01:05.098Z,5.85
2022-08-28T09:06:03.669Z,5.05
2022-08-28T09:11:13.772Z,6.63
2022-08-28T09:16:15.190Z,6.25
2022-08-28T09:21:08.522Z,5.93
2022-08-28T09:26:09.323Z,6.13
2022-08-28T09:31:08.768Z,5.85
2022-08-28T09:36:29.113Z,5.07
2022-08-28T09:41:43.716Z,5.25
2022-08-28T09:46:44.777Z,5.90
2022-08-28T09:51:39.526Z,4.20
2022-08-28T09:56:36.937Z,4.70
2022-08-28T10:01:56.964Z,3.70
2022-08-28T10:06:54.817Z,4.88
2022-08-28T10:16:57.473Z,4.93
2022-08-28T10:21:59.742Z,4.85
2022-08-28T10:27:08.710Z,4.90
2022-08-28T10:32:26.737Z,4.32
2022-08-28T10:37:30.339Z,4.05
2022-08-28T10:42:35.988Z,4.60
2022-08-28T10:47:30.988Z,4.32
2022-08-28T10:52:31.782Z,4.88
2022-08-28T10:57:37.311Z,4.22
2022-08-28T11:02:33.349Z,4.47
2022-08-28T11:07:36.466Z,4.63
2022-08-28T11:12:44.472Z,4.60
2022-08-28T11:17:44.093Z,4.63
2022-08-28T11:22:42.983Z,3.92
2022-08-28T11:27:38.725Z,4.65
2022-08-28T11:33:04.249Z,4.13
2022-08-28T11:37:59.390Z,4.45
2022-08-28T11:42:52.736Z,4.00
2022-08-28T11:48:02.161Z,4.75
2022-08-28T11:53:37.259Z,4.50
2022-08-28T11:58:41.962Z,4.35
2022-08-28T12:03:47.205Z,4.10
2022-08-28T12:09:15.519Z,4.15
2022-08-28T12:14:09.340Z,4.97
2022-08-28T12:19:07.810Z,5.38
2022-08-28T12:24:09.922Z,4.07
2022-08-28T12:29:24.697Z,4.57
2022-08-28T12:34:32.923Z,4.78
2022-08-28T12:39:26.544Z,4.47
2022-08-28T12:44:33.934Z,4.72
2022-08-28T12:49:35.825Z,4.00
2022-08-28T12:54:29.951Z,4.35
2022-08-28T12:59:27.310Z,4.25
2022-08-28T13:04:29.603Z,4.72
2022-08-28T13:09:28.727Z,4.18
2022-08-28T13:14:38.493Z,4.78
2022-08-28T13:19:33.736Z,4.47
2022-08-28T13:24:49.078Z,3.65
2022-08-28T13:29:57.285Z,4.20
2022-08-28T13:35:34.782Z,4.68
2022-08-28T13:40:56.856Z,4.70
2022-08-28T13:45:48.371Z,4.28
2022-08-28T13:57:03.767Z,5.47
2022-08-28T14:02:19.414Z,4.05
2022-08-28T14:07:13.029Z,3.80
2022-08-28T14:12:09.929Z,4.63
2022-08-28T14:17:05.079Z,5.63
2022-08-28T14:21:58.471Z,5.18
2022-08-28T14:26:56.312Z,5.53
2022-08-28T14:31:54.325Z,4.43
2022-08-28T14:36:50.951Z,4.80
2022-08-28T14:46:39.748Z,5.50
2022-08-28T14:51:36.028Z,6.50
2022-08-28T14:56:31.623Z,5.07
2022-08-28T15:01:26.558Z,5.80
2022-08-28T15:06:34.965Z,4.55
2022-08-28T15:11:29.953Z,5.00
2022-08-28T15:16:29.893Z,5.15
2022-08-28T15:21:26.705Z,5.38
2022-08-28T15:26:23.115Z,5.57
2022-08-28T15:31:17.272Z,4.90
2022-08-28T15:36:10.905Z,5.60
2022-08-28T15:41:21.767Z,5.00
2022-08-28T15:46:16.627Z,4.35
2022-08-28T15:51:09.968Z,5.55
2022-08-28T15:56:11.579Z,4.72
2022-08-28T16:01:05.075Z,4.72
2022-08-28T16:05:59.775Z,4.93
2022-08-28T16:10:53.910Z,5.25
2022-08-28T16:15:47.966Z,5.05
2022-08-28T16:20:42.218Z,4.80
2022-08-28T16:25:36.912Z,5.60
2022-08-28T16:30:30.208Z,6.03
2022-08-28T16:35:24.356Z,5.75
2022-08-28T16:40:17.892Z,5.47
2022-08-28T16:45:17.261Z,6.03
2022-08-28T16:50:26.973Z,6.85
2022-08-28T16:55:32.648Z,6.60
2022-08-28T17:00:31.819Z,7.38
2022-08-28T17:05:27.524Z,6.47
2022-08-28T17:10:27.849Z,7.53
2022-08-28T17:15:32.924Z,7.82
2022-08-28T17:20:46.084Z,8.93
2022-08-28T17:25:45.457Z,8.52
2022-08-28T17:30:43.944Z,8.07
2022-08-28T17:35:44.285Z,8.38
2022-08-28T17:40:44.732Z,8.23
2022-08-28T17:45:38.407Z,8.90
2022-08-28T17:50:34.365Z,7.57
2022-08-28T17:55:30.609Z,7.57
2022-08-28T18:00:38.532Z,9.40
2022-08-28T18:05:34.149Z,8.40
2022-08-28T18:10:33.680Z,7.88
2022-08-28T18:15:27.618Z,9.32
2022-08-28T18:20:21.492Z,8.25
2022-08-28T18:25:33.000Z,7.65
2022-08-28T18:30:27.672Z,7.68
2022-08-28T18:35:31.805Z,7.75
2022-08-28T18:40:27.372Z,9.32
2022-08-28T18:45:20.994Z,11.00
2022-08-28T18:50:15.824Z,10.25
2022-08-28T18:55:12.276Z,8.93
2022-08-28T19:00:11.624Z,8.90
2022-08-28T19:05:06.394Z,10.32
2022-08-28T19:10:18.309Z,8.88
2022-08-28T19:15:33.888Z,8.93
2022-08-28T19:20:28.622Z,9.57
2022-08-28T19:25:33.729Z,9.20
2022-08-28T19:30:37.109Z,8.98
2022-08-28T19:35:32.394Z,8.52
2022-08-28T19:40:27.923Z,9.07
2022-08-28T19:45:23.416Z,8.30
2022-08-28T19:50:24.255Z,8.73
2022-08-28T19:55:24.237Z,9.02
2022-08-28T20:00:24.059Z,8.52
2022-08-28T20:05:22.355Z,9.27
2022-08-28T20:10:21.015Z,8.27
2022-08-28T20:15:26.623Z,8.30
2022-08-28T20:20:27.986Z,7.45
2022-08-28T20:25:25.795Z,8.95
2022-08-28T20:30:21.406Z,8.73
2022-08-28T20:35:31.747Z,8.35
2022-08-28T20:40:29.031Z,8.23
2022-08-28T20:45:23.146Z,8.23
2022-08-28T20:50:17.035Z,8.40
2022-08-28T20:55:16.001Z,7.78
2022-08-28T21:00:12.756Z,8.65
2022-08-28T21:05:07.036Z,8.77
2022-08-28T21:10:06.871Z,8.63
2022-08-28T21:15:03.649Z,8.55
2022-08-28T21:19:58.875Z,9.27
2022-08-28T21:24:55.228Z,8.23
2022-08-28T21:29:53.580Z,7.40
2022-08-28T21:34:47.242Z,8.25
2022-08-28T21:39:45.517Z,8.25
2022-08-28T21:44:51.614Z,7.10
2022-08-28T21:49:52.166Z,8.38
2022-08-28T21:54:46.914Z,6.30
2022-08-28T21:59:45.166Z,7.80
2022-08-28T22:04:40.829Z,6.97
2022-08-28T22:09:36.629Z,6.40
2022-08-28T22:14:32.917Z,6.82
2022-08-28T22:19:27.643Z,6.68
2022-08-28T22:24:23.825Z,6.32
2022-08-28T22:29:17.916Z,7.00
2022-08-28T22:34:12.763Z,6.43
2022-08-28T22:39:08.304Z,6.32
2022-08-28T22:44:04.397Z,7.22
2022-08-28T22:48:59.355Z,6.22
2022-08-28T22:53:54.566Z,6.65
2022-08-28T22:58:48.627Z,6.53
2022-08-28T23:03:48.687Z,6.65
2022-08-28T23:08:44.572Z,6.22
2022-08-28T23:13:41.670Z,6.57
2022-08-28T23:18:51.961Z,6.22
2022-08-28T23:23:49.062Z,6.43
2022-08-28T23:28:46.724Z,6.03
2022-08-28T23:33:43.434Z,5.82
2022-08-28T23:38:42.903Z,5.65
2022-08-28T23:43:39.016Z,5.70
2022-08-28T23:48:35.758Z,5.85
2022-08-28T23:53:30.696Z,7.07
2022-08-28T23:58:24.454Z,6.05
